Time;durP1;ratioP1;P1;durP2;ratioP2;P2;SDS_P1;SDS_P2;PMS_P1;PMS_P2;Temp;Humidity;BMP_temperature;BMP_pressure;BME280_temperature;BME280_humidity;BME280_pressure;Samples;Min_cycle;Max_cycle;Signal;HPM_P1;HPM_P2
2021/07/12 00:00:29;;;;;;;23.83;19.10;;;16.40;13.90;17.40;100346.00;;;;4889484;29;20467;-79
2021/07/12 00:02:58;;;;;;;25.77;21.87;;;16.30;13.60;17.30;100381.00;;;;4891587;29;20459;-76
2021/07/12 00:05:28;;;;;;;23.73;18.73;;;16.20;13.60;17.30;100420.00;;;;4892356;29;20479;-76
2021/07/12 00:07:56;;;;;;;21.43;19.13;;;16.20;13.50;17.30;100418.00;;;;4896303;29;20478;-81
2021/07/12 00:10:28;;;;;;;21.73;19.53;;;16.20;13.40;17.20;100389.00;;;;4889277;29;20467;-78
2021/07/12 00:12:57;;;;;;;21.13;18.77;;;16.20;13.40;17.20;100417.00;;;;4890526;29;20487;-77
2021/07/12 00:15:29;;;;;;;26.10;19.97;;;16.20;13.40;17.20;100423.00;;;;4889858;29;20463;-78
2021/07/12 00:17:58;;;;;;;24.50;19.40;;;16.20;13.40;17.20;100413.00;;;;4903759;29;20530;-76
2021/07/12 00:20:26;;;;;;;21.53;19.40;;;16.20;13.20;17.20;100426.00;;;;4925982;29;20694;-78
2021/07/12 00:22:57;;;;;;;24.67;19.30;;;16.20;13.40;17.10;100413.00;;;;4895088;29;20455;-77
2021/07/12 00:25:27;;;;;;;21.63;19.20;;;15.90;13.10;17.10;100416.00;;;;4891345;29;20455;-75
2021/07/12 00:27:55;;;;;;;22.13;19.90;;;16.10;13.50;16.70;100413.00;;;;4921844;29;20570;-76
2021/07/12 00:30:24;;;;;;;23.20;19.20;;;16.10;13.50;17.10;100378.00;;;;4893105;29;20556;-78
2021/07/12 00:32:56;;;;;;;23.57;18.03;;;16.00;13.40;17.10;100417.00;;;;4895542;29;20567;-77
2021/07/12 00:35:29;;;;;;;25.93;19.37;;;15.90;13.60;17.00;100410.00;;;;4901463;29;20455;-78
2021/07/12 00:37:57;;;;;;;26.70;20.03;;;15.90;13.50;17.00;100412.00;;;;4892813;29;20856;-76
2021/07/12 00:40:29;;;;;;;25.07;20.80;;;15.90;13.60;16.90;100408.00;;;;4890468;29;20467;-77
2021/07/12 00:42:58;;;;;;;25.73;21.00;;;15.90;13.40;16.90;100390.00;;;;4919764;29;20506;-81
2021/07/12 00:45:31;;;;;;;25.63;19.60;;;16.00;13.40;16.90;100353.00;;;;4922335;29;20483;-77
2021/07/12 00:48:01;;;;;;;22.33;19.10;;;15.90;13.30;16.90;100401.00;;;;4899032;29;20542;-80
2021/07/12 00:50:34;;;;;;;21.83;18.87;;;15.90;13.40;16.90;100364.00;;;;4888810;29;20506;-77
2021/07/12 00:53:04;;;;;;;20.03;17.90;;;16.00;13.60;16.90;100393.00;;;;4923365;29;20522;-80
2021/07/12 00:55:38;;;;;;;29.03;19.67;;;16.00;13.50;16.90;100390.00;;;;4937612;29;20471;-79
2021/07/12 00:58:09;;;;;;;23.47;19.17;;;16.00;13.50;16.80;100395.00;;;;4915746;29;20465;-78
2021/07/12 01:00:40;;;;;;;21.30;17.10;;;15.90;13.60;16.70;100365.00;;;;4924585;29;20535;-77
2021/07/12 01:03:11;;;;;;;20.70;17.40;;;15.80;13.90;16.80;100372.00;;;;4892336;29;20487;-81
2021/07/12 01:05:42;;;;;;;20.70;17.00;;;15.90;14.00;16.80;100384.00;;;;4922256;29;20477;-76
2021/07/12 01:08:10;;;;;;;21.40;18.40;;;15.90;14.00;16.80;100393.00;;;;4889375;29;21048;-78
2021/07/12 01:11:01;;;;;;;20.77;17.27;;;15.90;13.90;16.60;100332.00;;;;4919710;29;20454;-78
2021/07/12 01:13:40;;;;;;;19.33;17.27;;;15.80;13.80;16.70;100383.00;;;;4889520;29;20582;-79
2021/07/12 01:16:25;;;;;;;25.07;16.70;;;15.80;13.90;16.70;100379.00;;;;4918830;29;20463;-74
2021/07/12 01:19:21;;;;;;;21.43;17.60;;;15.80;13.70;16.70;100370.00;;;;4918562;29;20587;-75
2021/07/12 01:22:32;;;;;;;21.03;18.73;;;15.80;13.80;16.60;100369.00;;;;4889230;29;20463;-75
2021/07/12 01:26:08;;;;;;;21.33;17.10;;;15.70;13.90;16.60;100378.00;;;;4887732;29;20986;-75
2021/07/12 01:29:10;;;;;;;28.90;21.00;;;15.70;14.00;16.70;100368.00;;;;4888297;29;20510;-75
2021/07/12 01:32:26;;;;;;;29.10;21.73;;;15.70;14.80;16.60;100365.00;;;;4917983;29;20471;-75
2021/07/12 01:35:03;;;;;;;27.23;20.23;;;15.70;15.10;16.60;100374.00;;;;4918273;29;20479;-75
2021/07/12 01:37:55;;;;;;;25.90;19.80;;;15.70;15.30;16.50;100369.00;;;;4915874;29;20494;-75
2021/07/12 01:40:33;;;;;;;22.87;18.37;;;15.60;15.00;16.50;100363.00;;;;4893519;29;20505;-78
2021/07/12 01:43:08;;;;;;;23.93;19.40;;;15.60;14.80;16.50;100370.00;;;;4922854;29;20454;-76
2021/07/12 01:45:54;;;;;;;23.07;18.43;;;15.60;14.50;16.50;100363.00;;;;4894714;29;20455;-76
2021/07/12 01:48:44;;;;;;;21.37;17.83;;;15.60;14.40;16.50;100371.00;;;;4885547;29;20525;-75
2021/07/12 01:51:18;;;;;;;25.00;18.77;;;15.60;13.90;16.50;100356.00;;;;4919950;29;20961;-75
2021/07/12 01:53:54;;;;;;;21.80;18.33;;;15.50;14.10;16.40;100355.00;;;;4920759;29;21026;-75
2021/07/12 01:56:33;;;;;;;21.13;18.10;;;15.50;14.10;16.30;100358.00;;;;4921856;29;20492;-76
2021/07/12 01:59:08;;;;;;;21.80;17.77;;;15.50;14.20;16.40;100334.00;;;;4898113;29;20487;-76
2021/07/12 02:01:41;;;;;;;23.57;17.90;;;15.50;14.10;16.40;100359.00;;;;4919831;29;20620;-76
2021/07/12 02:04:16;;;;;;;21.30;18.00;;;15.50;14.40;16.30;100341.00;;;;4890394;29;20561;-78
2021/07/12 02:06:47;;;;;;;19.17;16.73;;;15.50;14.40;16.30;100308.00;;;;4893402;29;20560;-77
2021/07/12 02:09:21;;;;;;;21.50;16.10;;;15.60;14.40;16.30;100356.00;;;;4923872;29;20467;-76
2021/07/12 02:11:59;;;;;;;21.43;16.67;;;15.60;14.10;16.20;100345.00;;;;4884465;29;20482;-78
2021/07/12 02:14:39;;;;;;;22.63;17.27;;;15.50;13.90;16.30;100345.00;;;;4899224;29;21065;-76
2021/07/12 02:17:09;;;;;;;18.03;15.73;;;15.50;14.00;16.30;100322.00;;;;4887047;29;20506;-76
2021/07/12 02:19:40;;;;;;;20.93;16.87;;;15.60;14.20;16.30;100339.00;;;;4887488;29;20522;-77
2021/07/12 02:22:13;;;;;;;19.50;16.10;;;15.60;14.00;16.20;100321.00;;;;4919725;29;20464;-77
2021/07/12 02:24:57;;;;;;;25.30;17.63;;;15.50;13.90;16.20;100335.00;;;;4921627;29;21288;-74
2021/07/12 02:27:26;;;;;;;20.90;16.73;;;15.30;14.30;16.20;100325.00;;;;4901819;29;20483;-76
2021/07/12 02:29:56;;;;;;;18.93;16.93;;;15.30;14.30;16.10;100317.00;;;;4927492;29;20469;-75
2021/07/12 02:32:28;;;;;;;20.13;17.07;;;15.30;14.40;16.10;100319.00;;;;4928844;29;20502;-76
2021/07/12 02:35:01;;;;;;;19.10;17.07;;;15.30;13.90;16.10;100315.00;;;;4932125;29;20455;-81
2021/07/12 02:37:38;;;;;;;25.33;17.50;;;15.30;13.70;16.10;100318.00;;;;4945810;29;20628;-79
2021/07/12 02:40:11;;;;;;;20.30;17.60;;;15.30;13.80;16.10;100315.00;;;;4890729;29;20478;-82
2021/07/12 02:42:41;;;;;;;19.10;15.83;;;15.30;13.90;16.10;100323.00;;;;4894083;29;20554;-78
2021/07/12 02:45:14;;;;;;;19.13;16.70;;;15.30;13.80;16.10;100330.00;;;;4925450;29;20787;-82
2021/07/12 02:47:47;;;;;;;21.23;16.50;;;15.30;14.00;16.00;100299.00;;;;4924538;29;20475;-75
2021/07/12 02:50:20;;;;;;;20.07;17.40;;;15.30;13.70;16.00;100326.00;;;;4900843;29;20843;-76
2021/07/12 02:53:00;;;;;;;19.17;16.33;;;15.30;13.70;16.00;100310.00;;;;4921428;29;20526;-75
2021/07/12 02:55:28;;;;;;;19.40;16.53;;;15.30;13.80;16.00;100330.00;;;;4893749;29;20573;-76
2021/07/12 02:57:57;;;;;;;19.10;17.10;;;15.20;13.70;15.90;100303.00;;;;4921986;29;20510;-77
2021/07/12 03:00:26;;;;;;;19.17;17.27;;;15.30;13.80;16.00;100311.00;;;;4923501;29;20463;-75
2021/07/12 03:02:55;;;;;;;19.30;17.30;;;15.30;13.70;16.00;100300.00;;;;4924084;29;20491;-76
2021/07/12 03:05:25;;;;;;;19.27;16.10;;;15.30;13.70;15.90;100312.00;;;;4922238;29;21109;-76
2021/07/12 03:08:06;;;;;;;19.53;17.23;;;15.20;13.70;15.90;100316.00;;;;4921580;29;20483;-77
2021/07/12 03:10:41;;;;;;;16.80;14.97;;;15.20;14.20;15.90;100294.00;;;;4921217;29;20546;-78
2021/07/12 03:13:16;;;;;;;19.40;16.50;;;15.20;13.60;15.90;100296.00;;;;4924656;29;20462;-76
2021/07/12 03:15:47;;;;;;;17.17;15.43;;;15.20;13.60;15.90;100302.00;;;;4890323;29;20474;-75
2021/07/12 03:18:22;;;;;;;22.90;17.20;;;15.20;13.70;15.90;100290.00;;;;4889068;29;20563;-77
2021/07/12 03:20:56;;;;;;;24.13;17.70;;;15.20;13.80;15.90;100294.00;;;;4898364;29;20554;-75
2021/07/12 03:23:26;;;;;;;22.93;17.73;;;15.00;13.90;15.90;100292.00;;;;4888110;29;20470;-75
2021/07/12 03:25:59;;;;;;;19.97;16.70;;;15.00;14.10;15.90;100262.00;;;;4889345;29;21056;-75
2021/07/12 03:28:29;;;;;;;19.47;16.37;;;15.00;14.30;15.90;100295.00;;;;4921073;29;20451;-76
2021/07/12 03:30:57;;;;;;;19.67;16.50;;;15.10;14.40;15.90;100288.00;;;;4887880;29;20460;-78
2021/07/12 03:33:30;;;;;;;21.00;16.30;;;15.10;14.50;15.90;100270.00;;;;4891776;29;20459;-75
2021/07/12 03:36:02;;;;;;;17.90;16.00;;;15.10;14.60;15.90;100285.00;;;;4897231;29;20558;-76
2021/07/12 03:38:32;;;;;;;20.13;15.27;;;15.10;14.50;15.90;100285.00;;;;4896708;29;20459;-79
2021/07/12 03:41:02;;;;;;;18.37;16.53;;;15.10;14.40;16.00;100268.00;;;;4920237;29;20519;-75
2021/07/12 03:43:31;;;;;;;21.67;15.70;;;15.10;14.40;16.00;100274.00;;;;4919289;29;20464;-75
2021/07/12 03:46:02;;;;;;;16.87;14.60;;;15.20;14.50;16.00;100257.00;;;;4921119;29;20499;-75
2021/07/12 03:48:38;;;;;;;18.60;14.70;;;15.20;14.30;16.00;100241.00;;;;4890488;29;20479;-75
2021/07/12 03:51:14;;;;;;;20.63;15.60;;;15.20;14.10;16.10;100269.00;;;;4897816;29;20459;-75
2021/07/12 03:53:46;;;;;;;18.90;14.77;;;15.20;14.30;16.20;100288.00;;;;4920534;29;20462;-75
2021/07/12 03:56:14;;;;;;;18.47;14.73;;;15.30;14.80;16.30;100269.00;;;;4890058;29;20485;-75
2021/07/12 03:58:43;;;;;;;17.87;14.53;;;15.30;15.00;16.30;100257.00;;;;4919261;29;20466;-75
2021/07/12 04:01:18;;;;;;;17.10;13.40;;;15.40;14.50;16.40;100263.00;;;;4886296;29;20469;-75
2021/07/12 04:03:47;;;;;;;14.60;12.90;;;15.50;14.50;16.50;100302.00;;;;4891893;29;20463;-77
2021/07/12 04:06:17;;;;;;;17.20;13.60;;;15.60;14.50;16.60;100305.00;;;;4891076;29;20468;-75
2021/07/12 04:08:45;;;;;;;17.37;13.83;;;15.80;14.50;16.40;100297.00;;;;4919772;29;20464;-76
2021/07/12 04:11:16;;;;;;;15.60;13.93;;;15.80;14.10;16.70;100292.00;;;;4890195;29;20567;-76
2021/07/12 04:13:46;;;;;;;16.57;13.70;;;15.90;14.10;16.80;100277.00;;;;4892225;29;20450;-77
2021/07/12 04:16:15;;;;;;;14.97;13.53;;;15.90;13.70;16.80;100290.00;;;;4905020;29;20482;-79
2021/07/12 04:18:43;;;;;;;14.33;12.50;;;16.00;13.50;16.90;100286.00;;;;4942016;29;20523;-79
2021/07/12 04:21:13;;;;;;;13.50;12.13;;;16.00;13.20;16.80;100263.00;;;;4935685;29;20482;-75
2021/07/12 04:23:43;;;;;;;13.53;12.13;;;16.00;12.90;16.90;100271.00;;;;4893010;29;20965;-75
2021/07/12 04:26:11;;;;;;;16.43;12.60;;;16.00;12.80;17.00;100248.00;;;;4892838;29;20455;-76
2021/07/12 04:28:40;;;;;;;15.93;13.13;;;16.00;12.60;17.00;100266.00;;;;4891863;29;20463;-78
2021/07/12 04:31:09;;;;;;;16.60;14.37;;;16.00;12.80;17.00;100264.00;;;;4917494;29;20470;-78
2021/07/12 04:33:37;;;;;;;14.80;13.30;;;16.10;12.70;17.10;100215.00;;;;4889944;29;20823;-81
2021/07/12 04:36:05;;;;;;;17.03;13.93;;;16.10;12.60;17.20;100255.00;;;;4897348;29;21001;-76
2021/07/12 04:38:35;;;;;;;15.40;13.83;;;16.20;12.70;17.30;100213.00;;;;4887866;29;20459;-81
2021/07/12 04:41:05;;;;;;;18.10;13.40;;;16.30;12.40;17.30;100267.00;;;;4881581;29;20455;-78
2021/07/12 04:43:33;;;;;;;14.07;12.23;;;16.40;12.10;17.40;100267.00;;;;4888510;29;20538;-81
2021/07/12 04:46:02;;;;;;;13.03;11.83;;;16.40;11.30;17.40;100263.00;;;;4919462;29;20550;-77
2021/07/12 04:48:33;;;;;;;14.97;11.67;;;16.40;11.40;17.50;100236.00;;;;4888310;29;20542;-79
2021/07/12 04:51:01;;;;;;;15.93;12.97;;;16.50;11.20;17.60;100268.00;;;;4919157;29;20451;-82
2021/07/12 04:53:29;;;;;;;16.27;12.63;;;16.60;10.30;17.70;100232.00;;;;4890382;29;20644;-76
2021/07/12 04:55:58;;;;;;;18.30;13.10;;;16.70;9.80;17.80;100262.00;;;;4889503;29;20492;-80
2021/07/12 04:58:30;;;;;;;17.20;11.50;;;16.70;9.10;17.90;100237.00;;;;4886394;29;20487;-76
2021/07/12 05:00:59;;;;;;;10.83;9.60;;;16.80;8.80;17.90;100219.00;;;;4893650;29;20486;-75
2021/07/12 05:03:32;;;;;;;10.83;9.83;;;16.90;8.10;18.10;100255.00;;;;4918773;29;20466;-77
2021/07/12 05:06:01;;;;;;;11.30;10.20;;;17.00;7.60;18.20;100234.00;;;;4888316;29;20475;-77
2021/07/12 05:08:29;;;;;;;9.97;8.90;;;17.10;7.10;18.40;100243.00;;;;4889516;29;20977;-78
2021/07/12 05:10:58;;;;;;;11.10;9.13;;;17.30;6.90;18.40;100247.00;;;;4889557;29;20583;-76
2021/07/12 05:13:30;;;;;;;11.07;9.30;;;17.40;6.50;18.40;100239.00;;;;4890530;29;20518;-76
2021/07/12 05:15:59;;;;;;;9.90;8.60;;;17.40;5.70;18.50;100244.00;;;;4889813;29;20494;-76
2021/07/12 05:18:27;;;;;;;10.00;8.83;;;17.50;5.20;18.40;100253.00;;;;4898473;29;20495;-76
2021/07/12 05:20:56;;;;;;;10.87;8.57;;;17.50;5.20;18.40;100230.00;;;;4908906;29;20513;-80
2021/07/12 05:23:24;;;;;;;9.90;8.10;;;17.50;4.60;18.50;100210.00;;;;4894565;29;20485;-77
2021/07/12 05:25:53;;;;;;;11.20;8.77;;;17.50;4.40;18.50;100243.00;;;;4889023;29;20455;-78
2021/07/12 05:28:21;;;;;;;13.13;9.13;;;17.60;4.20;18.40;100248.00;;;;4889135;29;21611;-77
2021/07/12 05:30:51;;;;;;;9.97;8.53;;;17.60;4.10;18.40;100237.00;;;;4916777;29;20551;-81
2021/07/12 05:33:19;;;;;;;9.93;8.93;;;17.50;4.10;18.40;100215.00;;;;4918844;29;20526;-76
2021/07/12 05:35:48;;;;;;;13.33;8.70;;;17.50;3.60;18.40;100212.00;;;;4886671;29;20558;-82
2021/07/12 05:38:16;;;;;;;9.90;8.60;;;17.50;3.10;18.40;100221.00;;;;4887988;29;20584;-75
2021/07/12 05:40:44;;;;;;;8.80;7.90;;;17.70;3.20;18.60;100230.00;;;;4888516;29;21004;-77
2021/07/12 05:43:14;;;;;;;8.77;7.97;;;17.70;3.20;18.80;100226.00;;;;4918649;29;20461;-78
2021/07/12 05:45:43;;;;;;;9.10;8.20;;;17.90;3.10;18.80;100240.00;;;;4902611;29;20459;-75
2021/07/12 05:48:13;;;;;;;8.90;8.03;;;17.90;1.90;18.90;100196.00;;;;4879699;29;20479;-77
2021/07/12 05:50:41;;;;;;;8.47;7.60;;;17.90;2.10;19.00;100234.00;;;;4887059;29;20458;-75
2021/07/12 05:53:09;;;;;;;9.10;8.20;;;18.00;2.40;19.30;100215.00;;;;4918445;29;21035;-77
2021/07/12 05:55:38;;;;;;;12.80;8.20;;;18.20;1.60;19.40;100176.00;;;;4887784;29;20487;-76
2021/07/12 05:58:06;;;;;;;10.10;8.10;;;18.30;1.00;19.40;100233.00;;;;4919057;29;20530;-75
2021/07/12 06:00:34;;;;;;;9.13;7.37;;;18.40;1.00;19.50;100225.00;;;;4887406;29;20471;-75
2021/07/12 06:03:03;;;;;;;7.93;7.23;;;18.50;1.00;19.90;100217.00;;;;4923311;29;20573;-76
2021/07/12 06:05:33;;;;;;;7.80;6.93;;;18.70;1.00;20.10;100221.00;;;;4897835;29;20482;-77
2021/07/12 06:08:02;;;;;;;9.67;7.50;;;18.90;1.00;20.30;100220.00;;;;4899241;29;20558;-80
2021/07/12 06:10:30;;;;;;;7.33;6.73;;;19.00;1.00;20.40;100218.00;;;;4891342;29;21397;-76
2021/07/12 06:12:59;;;;;;;8.27;6.70;;;19.20;1.00;20.60;100217.00;;;;4897012;29;20471;-77
2021/07/12 06:15:27;;;;;;;9.07;6.77;;;19.40;1.00;20.90;100211.00;;;;4890518;29;20466;-80
2021/07/12 06:17:56;;;;;;;7.00;6.33;;;19.70;1.00;21.10;100216.00;;;;4891864;29;20525;-76
2021/07/12 06:20:25;;;;;;;7.27;6.57;;;20.00;1.00;21.20;100206.00;;;;4888129;29;20523;-77
2021/07/12 06:22:54;;;;;;;7.67;6.50;;;20.00;1.00;21.40;100208.00;;;;4893472;29;20462;-76
2021/07/12 06:25:24;;;;;;;7.10;6.40;;;20.30;1.00;21.40;100220.00;;;;4892057;29;20526;-77
2021/07/12 06:27:52;;;;;;;8.90;5.83;;;20.40;1.00;21.30;100171.00;;;;4891969;29;21276;-77
2021/07/12 06:30:21;;;;;;;7.37;6.73;;;20.20;1.00;21.30;100201.00;;;;4889506;29;20459;-78
2021/07/12 06:32:49;;;;;;;9.40;6.33;;;20.20;1.00;21.30;100207.00;;;;4893286;29;20459;-77
2021/07/12 06:35:17;;;;;;;8.37;7.10;;;20.20;1.00;21.30;100200.00;;;;4892180;29;20548;-80
2021/07/12 06:37:46;;;;;;;7.60;6.90;;;20.20;1.00;21.20;100209.00;;;;4890342;29;20486;-77
2021/07/12 06:40:16;;;;;;;9.13;6.13;;;20.20;1.00;21.30;100195.00;;;;4922580;29;20511;-77
2021/07/12 06:42:45;;;;;;;7.00;6.30;;;20.10;1.00;21.30;100193.00;;;;4891498;29;20463;-78
2021/07/12 06:45:15;;;;;;;10.83;6.80;;;20.20;1.00;21.50;100195.00;;;;4902606;29;20459;-77
2021/07/12 06:47:43;;;;;;;6.70;6.10;;;20.40;1.00;21.60;100179.00;;;;4900490;29;20497;-77
2021/07/12 06:50:13;;;;;;;6.70;6.00;;;20.50;1.00;21.90;100196.00;;;;4927776;29;20526;-80
2021/07/12 06:52:43;;;;;;;11.07;6.03;;;20.70;1.00;22.20;100203.00;;;;4923439;29;20553;-77
2021/07/12 06:55:12;;;;;;;6.30;5.53;;;21.00;1.00;22.50;100201.00;;;;4895822;29;20515;-79
2021/07/12 06:57:45;;;;;;;8.10;5.30;;;21.30;1.00;22.60;100185.00;;;;4903750;29;21036;-75
2021/07/12 07:00:15;;;;;;;7.13;5.80;;;21.40;1.00;22.50;100205.00;;;;4898809;29;20502;-76
2021/07/12 07:03:00;;;;;;;8.57;6.90;;;21.40;1.00;22.40;100195.00;;;;4898755;29;20459;-78
2021/07/12 07:05:30;;;;;;;11.77;6.73;;;21.40;1.00;22.40;100205.00;;;;4896606;29;20995;-76
2021/07/12 07:08:06;;;;;;;10.50;6.80;;;21.50;1.00;22.60;100212.00;;;;4903733;29;20994;-75
2021/07/12 07:10:48;;;;;;;7.90;6.40;;;21.60;1.00;22.70;100217.00;;;;4926098;29;20507;-77
2021/07/12 07:13:18;;;;;;;8.10;6.50;;;21.60;1.00;22.70;100216.00;;;;4896348;29;20468;-77
2021/07/12 07:15:54;;;;;;;8.30;6.73;;;21.60;1.00;22.90;100212.00;;;;4893607;29;20459;-76
2021/07/12 07:18:22;;;;;;;7.20;6.50;;;21.70;1.00;23.00;100208.00;;;;4926312;29;20570;-76
2021/07/12 07:20:51;;;;;;;9.83;7.13;;;21.80;1.00;23.00;100217.00;;;;4885525;29;20607;-76
2021/07/12 07:23:19;;;;;;;7.83;6.80;;;21.80;1.00;23.10;100215.00;;;;4895030;29;20455;-80
2021/07/12 07:25:48;;;;;;;8.27;7.47;;;21.90;1.00;23.10;100221.00;;;;4924094;29;20466;-77
2021/07/12 07:28:18;;;;;;;13.87;7.13;;;22.00;1.00;23.00;100216.00;;;;4891380;29;20494;-80
2021/07/12 07:30:47;;;;;;;10.30;7.60;;;22.00;1.00;22.90;100218.00;;;;4902542;29;20454;-76
2021/07/12 07:33:15;;;;;;;13.93;8.23;;;21.90;1.00;22.70;100205.00;;;;4934985;29;20488;-79
2021/07/12 07:35:44;;;;;;;9.97;6.77;;;21.90;1.00;22.50;100196.00;;;;4910409;29;20458;-76
2021/07/12 07:38:12;;;;;;;14.17;6.67;;;21.80;1.00;22.50;100212.00;;;;4909657;29;20515;-77
2021/07/12 07:40:40;;;;;;;8.70;7.17;;;21.80;1.00;22.40;100220.00;;;;4935752;29;20543;-77
2021/07/12 07:43:09;;;;;;;9.73;7.47;;;21.70;1.00;22.30;100217.00;;;;4906631;29;20455;-76
2021/07/12 07:45:39;;;;;;;6.40;5.80;;;21.60;1.00;22.20;100197.00;;;;4900543;29;20543;-76
2021/07/12 07:48:08;;;;;;;7.87;6.60;;;21.50;1.00;22.20;100196.00;;;;4899044;29;20562;-76
2021/07/12 07:50:39;;;;;;;10.10;6.70;;;21.60;1.00;22.20;100200.00;;;;4896100;29;20482;-76
2021/07/12 07:53:09;;;;;;;8.70;6.53;;;21.50;1.00;22.30;100200.00;;;;4903529;29;20463;-76
2021/07/12 07:55:39;;;;;;;7.60;6.80;;;21.50;1.00;22.40;100202.00;;;;4898167;29;20800;-80
2021/07/12 07:58:08;;;;;;;7.70;5.90;;;21.60;1.00;22.40;100196.00;;;;4899633;29;20526;-76
2021/07/12 08:00:37;;;;;;;10.30;9.20;;;21.60;1.00;22.40;100160.00;;;;4926706;29;20563;-76
2021/07/12 08:03:06;;;;;;;8.90;5.97;;;21.70;1.00;22.50;100175.00;;;;4925872;29;20455;-78
2021/07/12 08:05:35;;;;;;;8.70;6.50;;;21.70;1.00;22.50;100189.00;;;;4898008;29;21481;-77
2021/07/12 08:08:05;;;;;;;8.73;6.07;;;21.70;1.00;22.60;100174.00;;;;4888561;29;20479;-76
2021/07/12 08:10:34;;;;;;;7.60;6.00;;;21.80;1.00;22.70;100166.00;;;;4894137;29;20853;-77
2021/07/12 08:13:07;;;;;;;7.10;6.17;;;21.90;1.00;22.80;100165.00;;;;4907589;29;20957;-77
2021/07/12 08:15:36;;;;;;;7.23;6.37;;;22.10;1.00;22.90;100162.00;;;;4906141;29;20470;-78
2021/07/12 08:18:06;;;;;;;6.60;5.43;;;22.20;1.00;23.10;100155.00;;;;4927623;29;20810;-80
2021/07/12 08:20:34;;;;;;;8.93;7.10;;;22.40;1.00;23.10;100156.00;;;;4904376;29;20486;-80
2021/07/12 08:23:03;;;;;;;7.80;6.73;;;22.40;1.00;22.90;100158.00;;;;4894581;29;20477;-79
2021/07/12 08:25:33;;;;;;;5.17;4.77;;;22.50;1.00;23.10;100133.00;;;;4924854;29;20954;-79
2021/07/12 08:28:03;;;;;;;6.67;6.07;;;22.60;1.00;23.30;100146.00;;;;4892875;29;20542;-79
2021/07/12 08:30:31;;;;;;;6.03;5.00;;;22.80;1.00;23.20;100132.00;;;;4924962;29;20443;-79
2021/07/12 08:33:00;;;;;;;4.97;4.47;;;22.80;1.00;23.30;100121.00;;;;4901543;29;20561;-80
2021/07/12 08:35:30;;;;;;;5.97;4.50;;;22.70;1.00;23.20;100134.00;;;;4894167;29;20498;-79
2021/07/12 08:37:58;;;;;;;6.67;4.73;;;22.70;1.00;23.40;100128.00;;;;4926407;29;20494;-80
2021/07/12 08:40:28;;;;;;;9.47;5.40;;;22.80;1.00;23.50;100120.00;;;;4893907;29;20465;-80
2021/07/12 08:42:59;;;;;;;5.90;4.17;;;23.00;1.00;23.60;100028.00;;;;4923790;29;20463;-80
2021/07/12 08:45:29;;;;;;;5.00;4.50;;;23.10;1.00;23.70;100108.00;;;;4901655;29;20455;-80
2021/07/12 08:47:58;;;;;;;4.30;3.90;;;23.20;1.00;23.80;100094.00;;;;4923805;29;20538;-79
2021/07/12 08:50:30;;;;;;;5.43;4.80;;;23.30;1.00;23.80;100105.00;;;;4894375;29;20451;-80
2021/07/12 08:52:58;;;;;;;7.17;3.93;;;23.50;1.00;24.00;100090.00;;;;4925061;29;20455;-80
2021/07/12 08:55:28;;;;;;;4.90;4.50;;;23.60;1.00;24.10;100073.00;;;;4900299;29;20466;-82
2021/07/12 08:58:07;;;;;;;8.13;4.50;;;23.70;1.00;24.10;100081.00;;;;4896666;29;20476;-79
2021/07/12 09:00:47;;;;;;;4.27;3.87;;;23.60;1.00;24.20;100076.00;;;;4897489;29;20555;-79
2021/07/12 09:03:28;;;;;;;5.03;4.63;;;23.70;1.00;24.30;100085.00;;;;4901247;29;20817;-79
2021/07/12 09:06:09;;;;;;;4.13;3.13;;;23.80;1.00;24.40;100078.00;;;;4897466;29;20458;-79
2021/07/12 09:08:48;;;;;;;4.13;3.73;;;23.80;1.00;24.50;100050.00;;;;4896980;29;20465;-78
2021/07/12 09:11:21;;;;;;;4.10;3.63;;;24.00;1.00;24.50;100079.00;;;;4926267;29;20465;-81
2021/07/12 09:13:54;;;;;;;4.53;3.50;;;24.00;1.00;24.50;100066.00;;;;4926181;29;20518;-82
2021/07/12 09:16:46;;;;;;;6.10;5.50;;;24.00;1.00;24.70;100036.00;;;;4894748;29;20459;-79
2021/07/12 09:19:23;;;;;;;5.27;3.33;;;24.20;1.00;24.70;100046.00;;;;4888097;29;20577;-79
2021/07/12 09:21:58;;;;;;;4.63;3.90;;;24.30;1.00;24.90;100053.00;;;;4931316;29;20497;-80
2021/07/12 09:24:34;;;;;;;4.40;4.00;;;24.40;1.00;25.00;100067.00;;;;4931872;29;20504;-79
2021/07/12 09:27:11;;;;;;;4.03;3.63;;;24.60;1.00;25.10;100067.00;;;;4894816;29;20977;-79
2021/07/12 09:29:42;;;;;;;5.43;3.00;;;24.60;1.00;25.30;100059.00;;;;4897319;29;20474;-79
2021/07/12 09:32:13;;;;;;;6.60;5.20;;;24.70;1.00;25.40;100029.00;;;;4927665;29;20518;-78
2021/07/12 09:34:42;;;;;;;5.30;4.03;;;24.70;1.00;25.50;100056.00;;;;4940023;29;20483;-81
2021/07/12 09:37:16;;;;;;;4.27;3.70;;;24.80;1.00;25.70;100039.00;;;;4915168;29;20495;-81
2021/07/12 09:39:45;;;;;;;4.47;3.60;;;25.00;1.00;25.90;100057.00;;;;4940358;29;20578;-80
2021/07/12 09:42:18;;;;;;;5.17;4.07;;;25.30;1.00;25.90;100049.00;;;;4906979;29;20455;-80
2021/07/12 09:44:53;;;;;;;3.87;3.47;;;25.40;1.00;26.00;100044.00;;;;4902128;29;20463;-82
2021/07/12 09:47:25;;;;;;;6.80;3.67;;;25.30;1.00;26.10;100022.00;;;;4900347;29;20512;-79
2021/07/12 09:50:01;;;;;;;5.60;3.87;;;25.50;1.00;26.10;100047.00;;;;4905970;29;20455;-75
2021/07/12 09:52:43;;;;;;;3.50;3.13;;;25.50;1.00;26.10;100045.00;;;;4892761;29;20463;-82
2021/07/12 09:55:27;;;;;;;8.13;3.60;;;25.50;1.00;26.00;100047.00;;;;4893498;29;20467;-78
2021/07/12 09:58:08;;;;;;;3.70;3.40;;;25.50;1.00;25.90;100048.00;;;;4923538;29;20586;-77
2021/07/12 10:00:37;;;;;;;6.00;5.50;;;25.30;1.00;26.00;100040.00;;;;4923434;29;20550;-79
2021/07/12 10:03:06;;;;;;;4.60;3.07;;;25.40;1.00;26.20;100038.00;;;;4894930;29;20503;-79
2021/07/12 10:05:35;;;;;;;7.50;4.23;;;25.60;1.00;26.40;100036.00;;;;4893367;29;20574;-77
2021/07/12 10:08:06;;;;;;;5.90;4.73;;;25.80;1.00;26.10;100016.00;;;;4891180;29;20490;-76
2021/07/12 10:10:35;;;;;;;8.00;6.00;;;25.60;1.00;26.30;99992.00;;;;4892242;29;20499;-76
2021/07/12 10:13:03;;;;;;;3.47;2.50;;;25.90;1.00;26.40;100019.00;;;;4906737;29;20485;-77
2021/07/12 10:15:32;;;;;;;3.50;3.20;;;26.10;1.00;26.50;100026.00;;;;4891424;29;20467;-76
2021/07/12 10:18:01;;;;;;;3.00;2.70;;;26.20;1.00;26.60;100010.00;;;;4924613;29;20527;-77
2021/07/12 10:20:33;;;;;;;3.90;2.67;;;26.40;1.00;26.70;99998.00;;;;4894007;29;20443;-78
2021/07/12 10:23:02;;;;;;;2.93;2.63;;;26.50;1.00;26.70;99994.00;;;;4892176;29;20551;-77
2021/07/12 10:25:34;;;;;;;2.87;2.57;;;26.30;1.00;26.60;99984.00;;;;4891097;29;20459;-81
2021/07/12 10:28:05;;;;;;;3.53;2.40;;;26.00;1.00;26.80;99989.00;;;;4862345;29;20484;-80
2021/07/12 10:30:37;;;;;;;2.47;2.27;;;26.10;1.00;27.20;99985.00;;;;4899868;29;20991;-79
2021/07/12 10:33:08;;;;;;;4.30;2.87;;;26.50;1.00;27.60;99972.00;;;;4902108;29;20459;-79
2021/07/12 10:35:44;;;;;;;3.33;2.37;;;27.10;1.00;27.80;99994.00;;;;4913225;29;21012;-80
2021/07/12 10:38:14;;;;;;;2.73;2.00;;;27.30;1.00;28.10;99955.00;;;;4906686;29;20497;-77
2021/07/12 10:40:53;;;;;;;2.80;2.27;;;27.30;1.00;28.20;99983.00;;;;4908455;29;20488;-76
2021/07/12 10:43:47;;;;;;;2.93;2.63;;;27.30;1.00;28.60;99978.00;;;;4894907;29;20479;-76
2021/07/12 10:46:39;;;;;;;3.27;2.30;;;27.60;1.00;28.60;99976.00;;;;4925496;29;20522;-76
2021/07/12 10:49:39;;;;;;;4.20;2.30;;;27.60;1.00;28.80;99972.00;;;;4898053;29;20535;-76
2021/07/12 10:52:43;;;;;;;4.13;2.47;;;27.90;1.00;28.90;99967.00;;;;4926458;29;20498;-76
2021/07/12 10:55:12;;;;;;;2.80;2.20;;;28.00;1.00;28.80;99986.00;;;;4929182;29;20521;-80
2021/07/12 10:57:42;;;;;;;2.87;2.27;;;27.90;1.00;29.00;99991.00;;;;4899348;29;20482;-76
2021/07/12 11:00:13;;;;;;;3.20;2.20;;;27.80;1.00;29.10;99979.00;;;;4929217;29;20491;-76
2021/07/12 11:02:42;;;;;;;2.20;1.90;;;27.90;1.00;29.20;99980.00;;;;4900324;29;20475;-77
2021/07/12 11:05:16;;;;;;;1.80;1.70;;;27.90;1.00;28.80;99978.00;;;;4903598;29;21634;-76
2021/07/12 11:07:46;;;;;;;2.83;1.97;;;27.50;1.00;28.70;99984.00;;;;4896125;29;20486;-77